FIN79 EFHK-RJGG
Flight info
| Callsign | FIN79 |
|---|---|
| Flight time | N/A |
| Altitude | 36000 |
| Route | KOIVU5C KOIVU Y123 LARTI DCT OSLAX DCT NEVTO P870 BERIL/N0497F350 DCT BOKSU/N0499F340 DCT TOXAR/N0492F360 DCT ROBTU/N0488F350 DCT KENIN DCT REVDA DCT UDROS/N0485F370 UM859 KARDE UN644 ROLIN N644 LAGAS M747 LUSAL N199 RASAM L88 METKA B476 TIMGA A480 OTBOR/K0907F370 N147 OFFES/K0902F390 N147 TRK Z621 ARBOL M610 RULAD/K0896S1190 A343 POSOT B215 FKG W188 GOVSA W66 ATBUG/K0895S1250 W66 DKO W69 HUR B339 LADIX W34 VAPGU W100 ORAVA W201 UNSEK A326 DONVO G597 AGAVO/N0485F410 Y644 EGOBA Y697 LANAT Y51 SAMON Y511 CHESS CHESSS |
| Aircraft | A359/H-SDE2E3GHIJ3J4J5LM1ORWXY/LB1D1 |
Departure
| Time | N/A |
|---|---|
| Airport | Helsinki Vantaa Airport (EFHK) |
Arrival
| Time | 2026-04-29 15:58 |
|---|---|
| Airport | Chubu Centrair International Airport (RJGG) |
| Time | Latitude | Longitude | Altitude | Speed | Heading |
|---|---|---|---|---|---|
| 2026-04-29 15:35 | 35.96467 | 135.75705 | 36435 ft | 566 kts | 126° |
| 2026-04-29 15:36 | 35.94574 | 135.79958 | 35761 ft | 565 kts | 126° |
| 2026-04-29 15:36 | 35.92680 | 135.84207 | 35072 ft | 565 kts | 126° |
| 2026-04-29 15:36 | 35.90779 | 135.88459 | 34272 ft | 567 kts | 126° |
| 2026-04-29 15:36 | 35.88869 | 135.92721 | 33374 ft | 570 kts | 126° |
| 2026-04-29 15:37 | 35.86948 | 135.97003 | 32518 ft | 570 kts | 125° |
| 2026-04-29 15:37 | 35.85025 | 136.01285 | 31646 ft | 571 kts | 125° |
| 2026-04-29 15:37 | 35.83100 | 136.05570 | 30765 ft | 572 kts | 125° |
| 2026-04-29 15:37 | 35.81171 | 136.09860 | 29847 ft | 573 kts | 125° |
| 2026-04-29 15:38 | 35.79239 | 136.14156 | 28897 ft | 571 kts | 125° |
| 2026-04-29 15:38 | 35.77072 | 136.18100 | 28239 ft | 554 kts | 136° |
| 2026-04-29 15:38 | 35.74384 | 136.21363 | 27602 ft | 532 kts | 150° |
| 2026-04-29 15:38 | 35.71352 | 136.23827 | 26969 ft | 516 kts | 158° |
| 2026-04-29 15:39 | 35.68252 | 136.25951 | 26358 ft | 506 kts | 161° |
| 2026-04-29 15:39 | 35.65150 | 136.27933 | 25760 ft | 500 kts | 161° |
| 2026-04-29 15:39 | 35.62096 | 136.29910 | 25417 ft | 494 kts | 160° |
| 2026-04-29 15:39 | 35.59076 | 136.31894 | 24886 ft | 489 kts | 160° |
| 2026-04-29 15:40 | 35.56088 | 136.33875 | 24253 ft | 486 kts | 160° |
| 2026-04-29 15:40 | 35.53121 | 136.35847 | 23594 ft | 483 kts | 159° |
| 2026-04-29 15:40 | 35.50183 | 136.37818 | 22891 ft | 480 kts | 159° |
| 2026-04-29 15:40 | 35.47266 | 136.39775 | 22239 ft | 475 kts | 159° |
| 2026-04-29 15:41 | 35.44382 | 136.41713 | 21594 ft | 471 kts | 159° |
| 2026-04-29 15:41 | 35.41519 | 136.43628 | 20959 ft | 465 kts | 159° |
| 2026-04-29 15:41 | 35.38691 | 136.45517 | 20306 ft | 461 kts | 158° |
| 2026-04-29 15:41 | 35.35859 | 136.47277 | 19688 ft | 451 kts | 163° |
| 2026-04-29 15:42 | 35.32930 | 136.48450 | 19067 ft | 436 kts | 175° |
| 2026-04-29 15:42 | 35.29975 | 136.48970 | 18457 ft | 426 kts | 182° |
| 2026-04-29 15:42 | 35.27041 | 136.49277 | 17791 ft | 421 kts | 182° |
| 2026-04-29 15:42 | 35.24135 | 136.49560 | 17165 ft | 417 kts | 182° |
| 2026-04-29 15:43 | 35.21260 | 136.49842 | 16532 ft | 413 kts | 182° |
| 2026-04-29 15:43 | 35.18414 | 136.50126 | 15951 ft | 408 kts | 181° |
| 2026-04-29 15:43 | 35.15603 | 136.50406 | 15350 ft | 404 kts | 181° |
| 2026-04-29 15:43 | 35.12810 | 136.50685 | 14746 ft | 400 kts | 181° |
| 2026-04-29 15:44 | 35.10039 | 136.50964 | 14148 ft | 397 kts | 180° |
| 2026-04-29 15:44 | 35.07296 | 136.51242 | 13491 ft | 394 kts | 180° |
| 2026-04-29 15:44 | 35.04575 | 136.51518 | 12883 ft | 390 kts | 180° |
| 2026-04-29 15:44 | 35.01883 | 136.51791 | 12287 ft | 386 kts | 180° |
| 2026-04-29 15:45 | 34.99218 | 136.52061 | 11598 ft | 384 kts | 179° |
| 2026-04-29 15:45 | 34.96601 | 136.52327 | 10941 ft | 381 kts | 179° |
| 2026-04-29 15:45 | 34.94003 | 136.52597 | 10704 ft | 366 kts | 179° |
| 2026-04-29 15:45 | 34.91530 | 136.52854 | 10584 ft | 348 kts | 179° |
| 2026-04-29 15:46 | 34.89180 | 136.53094 | 10455 ft | 331 kts | 179° |
| 2026-04-29 15:46 | 34.86934 | 136.53322 | 10332 ft | 316 kts | 179° |
| 2026-04-29 15:46 | 34.84796 | 136.53539 | 10195 ft | 302 kts | 180° |
| 2026-04-29 15:46 | 34.82745 | 136.53747 | 10081 ft | 289 kts | 180° |
| 2026-04-29 15:47 | 34.80770 | 136.53947 | 9940 ft | 280 kts | 180° |
| 2026-04-29 15:47 | 34.78787 | 136.54164 | 9677 ft | 291 kts | 178° |
| 2026-04-29 15:47 | 34.76774 | 136.54584 | 9343 ft | 295 kts | 171° |
| 2026-04-29 15:47 | 34.74811 | 136.55332 | 8962 ft | 297 kts | 162° |
| 2026-04-29 15:48 | 34.72939 | 136.56407 | 8622 ft | 298 kts | 154° |
| 2026-04-29 15:48 | 34.71202 | 136.57785 | 8294 ft | 299 kts | 145° |
| 2026-04-29 15:48 | 34.69631 | 136.59441 | 7953 ft | 299 kts | 138° |
| 2026-04-29 15:48 | 34.68255 | 136.61341 | 7626 ft | 300 kts | 130° |
| 2026-04-29 15:49 | 34.67017 | 136.63374 | 7293 ft | 298 kts | 128° |
| 2026-04-29 15:49 | 34.65814 | 136.65416 | 6974 ft | 296 kts | 128° |
| 2026-04-29 15:49 | 34.64636 | 136.67407 | 6648 ft | 294 kts | 128° |
| 2026-04-29 15:49 | 34.63443 | 136.69414 | 6316 ft | 292 kts | 128° |
| 2026-04-29 15:50 | 34.62257 | 136.71403 | 5981 ft | 290 kts | 127° |
| 2026-04-29 15:50 | 34.61075 | 136.73384 | 5666 ft | 289 kts | 127° |
| 2026-04-29 15:50 | 34.59984 | 136.75436 | 5341 ft | 289 kts | 119° |
| 2026-04-29 15:50 | 34.59168 | 136.77626 | 5126 ft | 280 kts | 109° |
| 2026-04-29 15:51 | 34.58674 | 136.79858 | 4968 ft | 268 kts | 99° |
| 2026-04-29 15:51 | 34.58478 | 136.82058 | 4805 ft | 257 kts | 90° |
| 2026-04-29 15:51 | 34.58643 | 136.84151 | 4607 ft | 243 kts | 65° |
| 2026-04-29 15:51 | 34.59636 | 136.85647 | 4459 ft | 220 kts | 25° |
| 2026-04-29 15:52 | 34.61008 | 136.86166 | 4408 ft | 196 kts | 2° |
| 2026-04-29 15:52 | 34.62295 | 136.86151 | 4404 ft | 175 kts | 348° |
| 2026-04-29 15:52 | 34.63467 | 136.85904 | 4288 ft | 169 kts | 345° |
| 2026-04-29 15:52 | 34.64613 | 136.85631 | 4040 ft | 168 kts | 347° |
| 2026-04-29 15:53 | 34.65761 | 136.85359 | 3800 ft | 166 kts | 347° |
| 2026-04-29 15:53 | 34.66889 | 136.85091 | 3518 ft | 164 kts | 347° |
| 2026-04-29 15:53 | 34.67981 | 136.84829 | 3286 ft | 160 kts | 347° |
| 2026-04-29 15:53 | 34.69056 | 136.84572 | 3064 ft | 155 kts | 348° |
| 2026-04-29 15:54 | 34.70095 | 136.84322 | 2859 ft | 149 kts | 348° |
| 2026-04-29 15:54 | 34.71112 | 136.84079 | 2666 ft | 148 kts | 349° |
| 2026-04-29 15:54 | 34.72120 | 136.83837 | 2462 ft | 147 kts | 349° |
| 2026-04-29 15:54 | 34.73126 | 136.83596 | 2268 ft | 147 kts | 349° |
| 2026-04-29 15:55 | 34.74129 | 136.83355 | 2077 ft | 147 kts | 349° |
| 2026-04-29 15:55 | 34.75107 | 136.83120 | 1875 ft | 139 kts | 349° |
| 2026-04-29 15:55 | 34.76023 | 136.82900 | 1690 ft | 130 kts | 348° |
| 2026-04-29 15:55 | 34.76898 | 136.82690 | 1521 ft | 127 kts | 348° |
| 2026-04-29 15:56 | 34.77766 | 136.82481 | 1348 ft | 127 kts | 348° |
| 2026-04-29 15:56 | 34.78339 | 136.82344 | 1232 ft | 127 kts | 347° |
| 2026-04-29 15:56 | 34.79210 | 136.82135 | 1061 ft | 128 kts | 348° |
| 2026-04-29 15:56 | 34.80088 | 136.81924 | 895 ft | 129 kts | 347° |
| 2026-04-29 15:57 | 34.80970 | 136.81711 | 724 ft | 129 kts | 348° |
| 2026-04-29 15:57 | 34.81845 | 136.81504 | 550 ft | 127 kts | 347° |
| 2026-04-29 15:57 | 34.82989 | 136.81231 | 329 ft | 126 kts | 347° |
| 2026-04-29 15:57 | 34.83838 | 136.81026 | 158 ft | 124 kts | 343° |
| 2026-04-29 15:58 | 34.84686 | 136.80817 | 37 ft | 123 kts | 345° |
| 2026-04-29 15:58 | 34.85205 | 136.80688 | 31 ft | 100 kts | 348° |
| 2026-04-29 15:58 | 34.85786 | 136.80550 | 30 ft | 71 kts | 349° |
| 2026-04-29 15:58 | 34.86141 | 136.80500 | 32 ft | 40 kts | 10° |
| 2026-04-29 15:59 | 34.86334 | 136.80576 | 34 ft | 17 kts | 40° |
| 2026-04-29 15:59 | 34.86304 | 136.80663 | 34 ft | 13 kts | 158° |
| 2026-04-29 15:59 | 34.86207 | 136.80695 | 34 ft | 16 kts | 168° |
| 2026-04-29 15:59 | 34.86090 | 136.80724 | 34 ft | 19 kts | 168° |
| 2026-04-29 16:00 | 34.85949 | 136.80759 | 34 ft | 22 kts | 168° |
| 2026-04-29 16:00 | 34.85785 | 136.80797 | 34 ft | 25 kts | 169° |
| 2026-04-29 16:00 | 34.85608 | 136.80841 | 34 ft | 22 kts | 161° |
| 2026-04-29 16:00 | 34.85579 | 136.80963 | 34 ft | 17 kts | 79° |
| 2026-04-29 16:01 | 34.85602 | 136.81117 | 35 ft | 20 kts | 80° |
| 2026-04-29 16:01 | 34.85680 | 136.81256 | 34 ft | 22 kts | 40° |
| 2026-04-29 16:01 | 34.85751 | 136.81329 | 35 ft | 4 kts | 40° |
| 2026-04-29 16:01 | 34.85771 | 136.81350 | 33 ft | 2 kts | 40° |
| 2026-04-29 16:02 | 34.85775 | 136.81354 | 33 ft | 1 kts | 40° |
| 2026-04-29 16:02 | 34.85780 | 136.81360 | 34 ft | 0 kts | 41° |